sensor_id;sensor_type;location;lat;lon;timestamp;pressure;altitude;pressure_sealevel;temperature;humidity
29169;BME280;16219;42.864;23.360;2023-03-15T00:00:34;94918.00;;;5.67;100.00
29169;BME280;16219;42.864;23.360;2023-03-15T00:03:01;94916.09;;;5.59;100.00
29169;BME280;16219;42.864;23.360;2023-03-15T00:05:29;94920.09;;;5.34;100.00
29169;BME280;16219;42.864;23.360;2023-03-15T00:07:57;94907.13;;;5.29;100.00
29169;BME280;16219;42.864;23.360;2023-03-15T00:10:24;94900.66;;;5.26;99.94
29169;BME280;16219;42.864;23.360;2023-03-15T00:12:51;94897.69;;;5.19;85.25
29169;BME280;16219;42.864;23.360;2023-03-15T00:15:18;94899.94;;;5.12;95.99
29169;BME280;16219;42.864;23.360;2023-03-15T00:17:46;94891.91;;;5.08;87.24
29169;BME280;16219;42.864;23.360;2023-03-15T00:20:13;94893.19;;;5.11;80.02
29169;BME280;16219;42.864;23.360;2023-03-15T00:22:40;94891.97;;;5.17;75.01
29169;BME280;16219;42.864;23.360;2023-03-15T00:25:08;94896.25;;;5.13;77.59
29169;BME280;16219;42.864;23.360;2023-03-15T00:27:35;94903.09;;;5.00;100.00
29169;BME280;16219;42.864;23.360;2023-03-15T00:30:03;94901.59;;;4.85;100.00
29169;BME280;16219;42.864;23.360;2023-03-15T00:32:31;94907.00;;;4.89;84.96
29169;BME280;16219;42.864;23.360;2023-03-15T00:34:59;94898.75;;;4.95;100.00
29169;BME280;16219;42.864;23.360;2023-03-15T00:37:26;94891.56;;;4.65;100.00
29169;BME280;16219;42.864;23.360;2023-03-15T00:39:53;94889.34;;;4.72;100.00
29169;BME280;16219;42.864;23.360;2023-03-15T00:42:38;94892.13;;;4.75;100.00
29169;BME280;16219;42.864;23.360;2023-03-15T00:45:07;94889.56;;;4.84;100.00
29169;BME280;16219;42.864;23.360;2023-03-15T00:47:35;94878.91;;;4.58;100.00
29169;BME280;16219;42.864;23.360;2023-03-15T00:50:03;94881.00;;;4.70;100.00
29169;BME280;16219;42.864;23.360;2023-03-15T00:52:33;94866.63;;;4.59;100.00
29169;BME280;16219;42.864;23.360;2023-03-15T00:55:01;94873.41;;;4.60;100.00
29169;BME280;16219;42.864;23.360;2023-03-15T00:57:28;94867.94;;;4.70;100.00
29169;BME280;16219;42.864;23.360;2023-03-15T00:59:56;94857.84;;;4.55;100.00
29169;BME280;16219;42.864;23.360;2023-03-15T01:02:22;94866.81;;;4.62;100.00
29169;BME280;16219;42.864;23.360;2023-03-15T01:04:50;94853.16;;;4.65;100.00
29169;BME280;16219;42.864;23.360;2023-03-15T01:07:19;94844.06;;;4.63;100.00
29169;BME280;16219;42.864;23.360;2023-03-15T01:09:46;94847.88;;;4.79;100.00
29169;BME280;16219;42.864;23.360;2023-03-15T01:12:13;94835.97;;;4.87;100.00
29169;BME280;16219;42.864;23.360;2023-03-15T01:14:40;94834.34;;;4.99;100.00
29169;BME280;16219;42.864;23.360;2023-03-15T01:17:07;94838.41;;;5.06;100.00
29169;BME280;16219;42.864;23.360;2023-03-15T01:19:34;94836.84;;;5.05;100.00
29169;BME280;16219;42.864;23.360;2023-03-15T01:22:01;94835.94;;;5.09;100.00
29169;BME280;16219;42.864;23.360;2023-03-15T01:24:29;94833.88;;;5.20;100.00
29169;BME280;16219;42.864;23.360;2023-03-15T01:26:56;94834.56;;;5.34;100.00
29169;BME280;16219;42.864;23.360;2023-03-15T01:29:23;94839.19;;;5.37;100.00
29169;BME280;16219;42.864;23.360;2023-03-15T01:31:50;94837.34;;;5.38;100.00
29169;BME280;16219;42.864;23.360;2023-03-15T01:34:17;94837.91;;;5.26;100.00
29169;BME280;16219;42.864;23.360;2023-03-15T01:36:48;94827.28;;;5.22;100.00
29169;BME280;16219;42.864;23.360;2023-03-15T01:39:17;94833.16;;;5.28;98.58
29169;BME280;16219;42.864;23.360;2023-03-15T01:41:46;94817.50;;;5.06;100.00
29169;BME280;16219;42.864;23.360;2023-03-15T01:44:14;94829.53;;;5.15;100.00
29169;BME280;16219;42.864;23.360;2023-03-15T01:46:42;94826.66;;;5.25;100.00
29169;BME280;16219;42.864;23.360;2023-03-15T01:49:17;94815.63;;;5.29;100.00
29169;BME280;16219;42.864;23.360;2023-03-15T01:51:50;94809.84;;;5.40;96.06
29169;BME280;16219;42.864;23.360;2023-03-15T01:54:22;94813.50;;;5.39;99.70
29169;BME280;16219;42.864;23.360;2023-03-15T01:56:57;94779.41;;;5.22;99.48
29169;BME280;16219;42.864;23.360;2023-03-15T01:59:37;94806.47;;;5.17;99.31
29169;BME280;16219;42.864;23.360;2023-03-15T02:02:05;94807.00;;;5.28;100.00
29169;BME280;16219;42.864;23.360;2023-03-15T02:04:37;94807.13;;;5.23;100.00
29169;BME280;16219;42.864;23.360;2023-03-15T02:07:06;94802.50;;;5.20;100.00
29169;BME280;16219;42.864;23.360;2023-03-15T02:09:36;94787.16;;;5.27;100.00
29169;BME280;16219;42.864;23.360;2023-03-15T02:12:10;94774.31;;;5.17;100.00
29169;BME280;16219;42.864;23.360;2023-03-15T02:14:38;94792.25;;;5.32;100.00
29169;BME280;16219;42.864;23.360;2023-03-15T02:17:08;94765.22;;;5.06;100.00
29169;BME280;16219;42.864;23.360;2023-03-15T02:19:47;94794.22;;;5.26;100.00
29169;BME280;16219;42.864;23.360;2023-03-15T02:22:24;94792.72;;;5.34;98.61
29169;BME280;16219;42.864;23.360;2023-03-15T02:25:02;94782.25;;;5.34;97.64
29169;BME280;16219;42.864;23.360;2023-03-15T02:27:34;94777.28;;;5.24;99.76
29169;BME280;16219;42.864;23.360;2023-03-15T02:30:03;94753.69;;;5.07;100.00
29169;BME280;16219;42.864;23.360;2023-03-15T02:32:31;94768.81;;;5.18;100.00
29169;BME280;16219;42.864;23.360;2023-03-15T02:34:58;94745.84;;;5.07;100.00
29169;BME280;16219;42.864;23.360;2023-03-15T02:37:25;94763.38;;;5.06;100.00
29169;BME280;16219;42.864;23.360;2023-03-15T02:39:52;94767.34;;;5.04;100.00
29169;BME280;16219;42.864;23.360;2023-03-15T02:42:19;94757.38;;;4.83;100.00
29169;BME280;16219;42.864;23.360;2023-03-15T02:44:50;94755.13;;;4.90;100.00
29169;BME280;16219;42.864;23.360;2023-03-15T02:47:21;94756.53;;;4.96;100.00
29169;BME280;16219;42.864;23.360;2023-03-15T02:49:51;94755.94;;;4.68;100.00
29169;BME280;16219;42.864;23.360;2023-03-15T02:52:19;94766.56;;;4.72;100.00
29169;BME280;16219;42.864;23.360;2023-03-15T02:54:46;94749.75;;;4.64;100.00
29169;BME280;16219;42.864;23.360;2023-03-15T02:57:16;94752.34;;;4.64;100.00
29169;BME280;16219;42.864;23.360;2023-03-15T02:59:44;94767.72;;;4.66;100.00
29169;BME280;16219;42.864;23.360;2023-03-15T03:02:13;94759.47;;;4.50;100.00
29169;BME280;16219;42.864;23.360;2023-03-15T03:04:41;94752.94;;;4.61;100.00
29169;BME280;16219;42.864;23.360;2023-03-15T03:07:09;94761.72;;;4.65;100.00
29169;BME280;16219;42.864;23.360;2023-03-15T03:09:44;94754.78;;;4.61;100.00
29169;BME280;16219;42.864;23.360;2023-03-15T03:12:12;94750.84;;;4.49;100.00
29169;BME280;16219;42.864;23.360;2023-03-15T03:14:39;94735.91;;;4.41;100.00
29169;BME280;16219;42.864;23.360;2023-03-15T03:17:13;94734.94;;;4.37;100.00
29169;BME280;16219;42.864;23.360;2023-03-15T03:19:41;94752.75;;;4.13;100.00
29169;BME280;16219;42.864;23.360;2023-03-15T03:22:09;94742.19;;;4.18;100.00
29169;BME280;16219;42.864;23.360;2023-03-15T03:24:38;94741.59;;;4.21;100.00
29169;BME280;16219;42.864;23.360;2023-03-15T03:27:12;94737.34;;;4.11;100.00
29169;BME280;16219;42.864;23.360;2023-03-15T03:29:42;94736.78;;;4.14;100.00
29169;BME280;16219;42.864;23.360;2023-03-15T03:32:10;94736.50;;;4.02;100.00
29169;BME280;16219;42.864;23.360;2023-03-15T03:34:38;94737.16;;;4.08;100.00
29169;BME280;16219;42.864;23.360;2023-03-15T03:37:06;94705.97;;;4.03;100.00
29169;BME280;16219;42.864;23.360;2023-03-15T03:39:59;94729.72;;;4.15;100.00
29169;BME280;16219;42.864;23.360;2023-03-15T03:42:27;94714.00;;;4.06;100.00
29169;BME280;16219;42.864;23.360;2023-03-15T03:44:54;94711.25;;;4.11;100.00
29169;BME280;16219;42.864;23.360;2023-03-15T03:47:24;94707.41;;;4.09;100.00
29169;BME280;16219;42.864;23.360;2023-03-15T03:49:53;94714.75;;;4.07;100.00
29169;BME280;16219;42.864;23.360;2023-03-15T03:52:20;94712.97;;;3.93;100.00
29169;BME280;16219;42.864;23.360;2023-03-15T03:54:49;94706.97;;;3.93;100.00
29169;BME280;16219;42.864;23.360;2023-03-15T03:57:17;94711.69;;;4.05;100.00
29169;BME280;16219;42.864;23.360;2023-03-15T03:59:44;94707.81;;;4.02;100.00
29169;BME280;16219;42.864;23.360;2023-03-15T04:02:11;94709.34;;;4.03;100.00
29169;BME280;16219;42.864;23.360;2023-03-15T04:04:43;94704.63;;;4.05;100.00
29169;BME280;16219;42.864;23.360;2023-03-15T04:07:16;94693.88;;;4.07;100.00
29169;BME280;16219;42.864;23.360;2023-03-15T04:09:44;94693.53;;;3.99;100.00
29169;BME280;16219;42.864;23.360;2023-03-15T04:12:11;94696.56;;;3.79;100.00
29169;BME280;16219;42.864;23.360;2023-03-15T04:14:40;94678.91;;;3.76;100.00
29169;BME280;16219;42.864;23.360;2023-03-15T04:17:10;94693.41;;;4.05;100.00
29169;BME280;16219;42.864;23.360;2023-03-15T04:19:37;94692.09;;;4.16;100.00
29169;BME280;16219;42.864;23.360;2023-03-15T04:22:06;94701.97;;;4.19;100.00
29169;BME280;16219;42.864;23.360;2023-03-15T04:24:53;94685.94;;;4.12;100.00
29169;BME280;16219;42.864;23.360;2023-03-15T04:27:31;94663.69;;;3.92;100.00
29169;BME280;16219;42.864;23.360;2023-03-15T04:30:11;94683.44;;;4.07;100.00
29169;BME280;16219;42.864;23.360;2023-03-15T04:32:56;94687.59;;;4.08;100.00
29169;BME280;16219;42.864;23.360;2023-03-15T04:35:41;94670.75;;;3.91;100.00
29169;BME280;16219;42.864;23.360;2023-03-15T04:38:29;94678.53;;;4.05;100.00
29169;BME280;16219;42.864;23.360;2023-03-15T04:41:21;94680.72;;;4.12;100.00
29169;BME280;16219;42.864;23.360;2023-03-15T04:43:58;94675.41;;;4.17;100.00
29169;BME280;16219;42.864;23.360;2023-03-15T04:46:55;94690.44;;;4.20;100.00
29169;BME280;16219;42.864;23.360;2023-03-15T04:49:49;94682.63;;;4.20;100.00
29169;BME280;16219;42.864;23.360;2023-03-15T04:52:39;94677.88;;;4.22;100.00
29169;BME280;16219;42.864;23.360;2023-03-15T04:55:29;94681.72;;;4.02;100.00
29169;BME280;16219;42.864;23.360;2023-03-15T04:58:06;94688.91;;;4.19;100.00
29169;BME280;16219;42.864;23.360;2023-03-15T05:00:43;94682.53;;;4.25;100.00
29169;BME280;16219;42.864;23.360;2023-03-15T05:03:30;94676.69;;;4.28;100.00
29169;BME280;16219;42.864;23.360;2023-03-15T05:06:04;94682.72;;;4.37;100.00
29169;BME280;16219;42.864;23.360;2023-03-15T05:08:51;94678.19;;;4.43;100.00
29169;BME280;16219;42.864;23.360;2023-03-15T05:11:38;94685.06;;;4.39;100.00
29169;BME280;16219;42.864;23.360;2023-03-15T05:14:27;94678.94;;;4.43;100.00
29169;BME280;16219;42.864;23.360;2023-03-15T05:17:24;94675.38;;;4.39;100.00
29169;BME280;16219;42.864;23.360;2023-03-15T05:20:10;94666.25;;;4.50;100.00
29169;BME280;16219;42.864;23.360;2023-03-15T05:23:00;94665.50;;;4.59;100.00
29169;BME280;16219;42.864;23.360;2023-03-15T05:25:51;94665.97;;;4.61;100.00
29169;BME280;16219;42.864;23.360;2023-03-15T05:28:42;94678.56;;;4.59;100.00
29169;BME280;16219;42.864;23.360;2023-03-15T05:31:30;94685.53;;;4.63;100.00
29169;BME280;16219;42.864;23.360;2023-03-15T05:34:28;94681.38;;;4.71;100.00
29169;BME280;16219;42.864;23.360;2023-03-15T05:37:16;94684.66;;;4.76;100.00
29169;BME280;16219;42.864;23.360;2023-03-15T05:39:59;94683.94;;;4.85;100.00
29169;BME280;16219;42.864;23.360;2023-03-15T05:42:53;94685.81;;;4.93;100.00
29169;BME280;16219;42.864;23.360;2023-03-15T05:45:30;94680.16;;;4.99;100.00
29169;BME280;16219;42.864;23.360;2023-03-15T05:48:14;94677.88;;;5.07;100.00
29169;BME280;16219;42.864;23.360;2023-03-15T05:50:53;94678.81;;;5.11;100.00
29169;BME280;16219;42.864;23.360;2023-03-15T05:53:28;94677.44;;;5.22;100.00
29169;BME280;16219;42.864;23.360;2023-03-15T05:56:19;94664.25;;;5.27;100.00
29169;BME280;16219;42.864;23.360;2023-03-15T05:59:15;94664.44;;;5.39;100.00
29169;BME280;16219;42.864;23.360;2023-03-15T06:02:00;94653.69;;;5.41;100.00
29169;BME280;16219;42.864;23.360;2023-03-15T06:04:37;94653.31;;;5.25;100.00
29169;BME280;16219;42.864;23.360;2023-03-15T06:07:05;94656.44;;;5.36;100.00
29169;BME280;16219;42.864;23.360;2023-03-15T06:09:33;94657.66;;;5.38;100.00
29169;BME280;16219;42.864;23.360;2023-03-15T06:12:00;94663.22;;;5.45;100.00
29169;BME280;16219;42.864;23.360;2023-03-15T06:14:27;94666.91;;;5.44;100.00
29169;BME280;16219;42.864;23.360;2023-03-15T06:16:59;94664.59;;;5.43;100.00
29169;BME280;16219;42.864;23.360;2023-03-15T06:19:28;94668.28;;;5.42;100.00
29169;BME280;16219;42.864;23.360;2023-03-15T06:21:57;94664.91;;;5.50;100.00
29169;BME280;16219;42.864;23.360;2023-03-15T06:24:30;94669.56;;;5.62;100.00
29169;BME280;16219;42.864;23.360;2023-03-15T06:26:58;94674.22;;;5.73;100.00
29169;BME280;16219;42.864;23.360;2023-03-15T06:29:26;94674.38;;;5.94;99.79
29169;BME280;16219;42.864;23.360;2023-03-15T06:31:55;94664.81;;;6.16;97.61
29169;BME280;16219;42.864;23.360;2023-03-15T06:34:24;94658.69;;;6.12;97.55
29169;BME280;16219;42.864;23.360;2023-03-15T06:36:52;94661.59;;;6.36;98.17
29169;BME280;16219;42.864;23.360;2023-03-15T06:39:20;94658.66;;;6.46;91.51
29169;BME280;16219;42.864;23.360;2023-03-15T06:41:50;94661.69;;;6.66;91.54
29169;BME280;16219;42.864;23.360;2023-03-15T06:44:20;94648.22;;;6.85;91.10
29169;BME280;16219;42.864;23.360;2023-03-15T06:46:53;94653.25;;;6.98;89.37
29169;BME280;16219;42.864;23.360;2023-03-15T06:49:20;94663.38;;;7.09;93.40
29169;BME280;16219;42.864;23.360;2023-03-15T06:51:48;94654.09;;;7.20;82.83
29169;BME280;16219;42.864;23.360;2023-03-15T06:54:15;94652.66;;;7.31;83.58
29169;BME280;16219;42.864;23.360;2023-03-15T06:56:44;94649.28;;;7.22;83.57
29169;BME280;16219;42.864;23.360;2023-03-15T06:59:15;94644.31;;;7.29;87.94
29169;BME280;16219;42.864;23.360;2023-03-15T07:01:42;94629.78;;;7.61;82.41
29169;BME280;16219;42.864;23.360;2023-03-15T07:04:09;94639.91;;;7.92;78.54
29169;BME280;16219;42.864;23.360;2023-03-15T07:06:36;94647.66;;;8.10;75.02
29169;BME280;16219;42.864;23.360;2023-03-15T07:09:03;94644.31;;;8.42;70.31
29169;BME280;16219;42.864;23.360;2023-03-15T07:11:31;94642.78;;;8.54;69.58
29169;BME280;16219;42.864;23.360;2023-03-15T07:14:00;94639.00;;;8.63;71.28
29169;BME280;16219;42.864;23.360;2023-03-15T07:16:27;94636.72;;;8.86;71.05
29169;BME280;16219;42.864;23.360;2023-03-15T07:18:54;94642.56;;;9.16;63.75
29169;BME280;16219;42.864;23.360;2023-03-15T07:21:24;94638.28;;;9.36;61.13
29169;BME280;16219;42.864;23.360;2023-03-15T07:23:51;94637.50;;;9.60;60.35
29169;BME280;16219;42.864;23.360;2023-03-15T07:26:18;94631.22;;;9.77;61.70
29169;BME280;16219;42.864;23.360;2023-03-15T07:28:45;94616.25;;;9.81;56.28
29169;BME280;16219;42.864;23.360;2023-03-15T07:31:14;94619.56;;;9.90;56.86
29169;BME280;16219;42.864;23.360;2023-03-15T07:33:42;94615.63;;;10.12;53.92
29169;BME280;16219;42.864;23.360;2023-03-15T07:36:09;94616.59;;;10.20;55.25
29169;BME280;16219;42.864;23.360;2023-03-15T07:38:36;94633.16;;;10.48;57.05
29169;BME280;16219;42.864;23.360;2023-03-15T07:41:04;94624.94;;;10.50;51.77
29169;BME280;16219;42.864;23.360;2023-03-15T07:43:33;94617.03;;;10.50;54.22
29169;BME280;16219;42.864;23.360;2023-03-15T07:46:27;94620.91;;;10.84;54.07
29169;BME280;16219;42.864;23.360;2023-03-15T07:48:55;94610.00;;;10.86;50.86
29169;BME280;16219;42.864;23.360;2023-03-15T07:51:22;94597.66;;;11.06;54.67
29169;BME280;16219;42.864;23.360;2023-03-15T07:53:49;94598.81;;;11.24;51.68
29169;BME280;16219;42.864;23.360;2023-03-15T07:56:17;94609.28;;;11.36;49.72
29169;BME280;16219;42.864;23.360;2023-03-15T07:58:44;94599.00;;;11.31;50.05
29169;BME280;16219;42.864;23.360;2023-03-15T08:01:11;94596.38;;;11.50;49.83
29169;BME280;16219;42.864;23.360;2023-03-15T08:03:40;94607.41;;;11.72;50.02
29169;BME280;16219;42.864;23.360;2023-03-15T08:06:07;94609.94;;;11.84;49.59
29169;BME280;16219;42.864;23.360;2023-03-15T08:08:34;94598.34;;;11.89;49.98
29169;BME280;16219;42.864;23.360;2023-03-15T08:11:03;94598.13;;;11.97;49.86
29169;BME280;16219;42.864;23.360;2023-03-15T08:13:30;94592.66;;;11.71;49.00
29169;BME280;16219;42.864;23.360;2023-03-15T08:15:58;94593.06;;;11.54;48.61
29169;BME280;16219;42.864;23.360;2023-03-15T08:18:25;94588.84;;;11.33;50.29
29169;BME280;16219;42.864;23.360;2023-03-15T08:20:55;94581.13;;;11.60;51.67
29169;BME280;16219;42.864;23.360;2023-03-15T08:23:23;94581.31;;;11.86;52.69
29169;BME280;16219;42.864;23.360;2023-03-15T08:25:50;94580.19;;;11.87;49.59
29169;BME280;16219;42.864;23.360;2023-03-15T08:28:17;94574.84;;;11.68;49.37
29169;BME280;16219;42.864;23.360;2023-03-15T08:30:46;94565.13;;;11.72;51.51
29169;BME280;16219;42.864;23.360;2023-03-15T08:33:13;94563.38;;;11.95;50.68
29169;BME280;16219;42.864;23.360;2023-03-15T08:35:40;94569.34;;;11.92;51.00
29169;BME280;16219;42.864;23.360;2023-03-15T08:38:09;94573.56;;;11.77;50.79
29169;BME280;16219;42.864;23.360;2023-03-15T08:40:37;94577.16;;;11.85;50.86
29169;BME280;16219;42.864;23.360;2023-03-15T08:43:05;94577.53;;;12.26;50.42
29169;BME280;16219;42.864;23.360;2023-03-15T08:45:32;94575.75;;;12.53;50.17
29169;BME280;16219;42.864;23.360;2023-03-15T08:48:00;94567.84;;;12.57;48.90
29169;BME280;16219;42.864;23.360;2023-03-15T08:50:28;94579.34;;;12.87;49.26
29169;BME280;16219;42.864;23.360;2023-03-15T08:52:56;94567.22;;;12.86;46.34
29169;BME280;16219;42.864;23.360;2023-03-15T08:55:25;94576.34;;;12.66;47.48
29169;BME280;16219;42.864;23.360;2023-03-15T08:57:52;94577.94;;;12.70;49.22
29169;BME280;16219;42.864;23.360;2023-03-15T09:00:20;94572.75;;;12.55;47.40
29169;BME280;16219;42.864;23.360;2023-03-15T09:02:47;94572.28;;;12.72;47.52
29169;BME280;16219;42.864;23.360;2023-03-15T09:05:16;94565.09;;;12.72;47.23
29169;BME280;16219;42.864;23.360;2023-03-15T09:07:44;94568.03;;;12.90;49.92
29169;BME280;16219;42.864;23.360;2023-03-15T09:10:12;94567.81;;;12.76;47.73
29169;BME280;16219;42.864;23.360;2023-03-15T09:12:41;94567.69;;;12.69;47.25
29169;BME280;16219;42.864;23.360;2023-03-15T09:15:10;94568.16;;;12.51;49.26
29169;BME280;16219;42.864;23.360;2023-03-15T09:17:37;94573.75;;;12.46;48.92
29169;BME280;16219;42.864;23.360;2023-03-15T09:20:06;94562.16;;;12.55;50.25
29169;BME280;16219;42.864;23.360;2023-03-15T09:22:39;94564.56;;;12.86;48.54
29169;BME280;16219;42.864;23.360;2023-03-15T09:25:06;94568.72;;;13.10;50.17
29169;BME280;16219;42.864;23.360;2023-03-15T09:27:34;94565.91;;;13.22;49.53
29169;BME280;16219;42.864;23.360;2023-03-15T09:30:04;94553.16;;;13.05;48.48
29169;BME280;16219;42.864;23.360;2023-03-15T09:32:32;94554.41;;;12.88;47.58
29169;BME280;16219;42.864;23.360;2023-03-15T09:35:01;94555.41;;;12.80;48.43
29169;BME280;16219;42.864;23.360;2023-03-15T09:37:29;94564.22;;;12.65;48.72
29169;BME280;16219;42.864;23.360;2023-03-15T09:39:56;94558.28;;;12.71;49.68
29169;BME280;16219;42.864;23.360;2023-03-15T09:42:29;94553.34;;;12.70;48.83
29169;BME280;16219;42.864;23.360;2023-03-15T09:45:07;94555.66;;;12.71;48.75
29169;BME280;16219;42.864;23.360;2023-03-15T09:47:41;94542.06;;;12.73;48.90
29169;BME280;16219;42.864;23.360;2023-03-15T09:50:18;94545.38;;;12.66;51.14
29169;BME280;16219;42.864;23.360;2023-03-15T09:52:49;94542.13;;;12.76;52.38
29169;BME280;16219;42.864;23.360;2023-03-15T09:55:21;94539.59;;;12.61;48.49
29169;BME280;16219;42.864;23.360;2023-03-15T09:57:51;94534.22;;;12.80;49.49
29169;BME280;16219;42.864;23.360;2023-03-15T10:00:26;94542.56;;;13.05;51.69
29169;BME280;16219;42.864;23.360;2023-03-15T10:02:59;94543.00;;;12.84;48.06
29169;BME280;16219;42.864;23.360;2023-03-15T10:05:37;94527.31;;;12.72;49.98
29169;BME280;16219;42.864;23.360;2023-03-15T10:08:09;94530.06;;;12.79;49.75
29169;BME280;16219;42.864;23.360;2023-03-15T10:10:42;94527.19;;;12.65;50.35
29169;BME280;16219;42.864;23.360;2023-03-15T10:16:06;94528.81;;;12.96;51.29
29169;BME280;16219;42.864;23.360;2023-03-15T10:18:47;94523.66;;;13.07;48.87
29169;BME280;16219;42.864;23.360;2023-03-15T10:21:26;94516.84;;;13.06;49.75
29169;BME280;16219;42.864;23.360;2023-03-15T10:23:58;94531.41;;;13.19;48.72
29169;BME280;16219;42.864;23.360;2023-03-15T10:26:31;94525.81;;;13.24;49.42
29169;BME280;16219;42.864;23.360;2023-03-15T10:29:02;94532.84;;;13.39;48.94
29169;BME280;16219;42.864;23.360;2023-03-15T10:31:37;94527.63;;;13.46;48.55
29169;BME280;16219;42.864;23.360;2023-03-15T10:34:08;94522.44;;;13.54;47.73
29169;BME280;16219;42.864;23.360;2023-03-15T10:36:36;94514.91;;;13.56;50.62
29169;BME280;16219;42.864;23.360;2023-03-15T10:39:03;94515.78;;;13.67;47.27
29169;BME280;16219;42.864;23.360;2023-03-15T10:41:39;94513.94;;;13.71;49.53
29169;BME280;16219;42.864;23.360;2023-03-15T10:44:11;94510.19;;;13.75;48.13
29169;BME280;16219;42.864;23.360;2023-03-15T10:46:40;94514.72;;;13.75;47.43
29169;BME280;16219;42.864;23.360;2023-03-15T10:49:09;94510.00;;;13.58;48.27
29169;BME280;16219;42.864;23.360;2023-03-15T10:51:39;94511.81;;;13.54;50.42
29169;BME280;16219;42.864;23.360;2023-03-15T10:54:12;94512.25;;;13.59;49.25
29169;BME280;16219;42.864;23.360;2023-03-15T10:56:45;94515.56;;;13.49;49.51
29169;BME280;16219;42.864;23.360;2023-03-15T10:59:15;94508.63;;;13.41;49.18
29169;BME280;16219;42.864;23.360;2023-03-15T11:01:46;94513.66;;;13.49;49.67
29169;BME280;16219;42.864;23.360;2023-03-15T11:04:17;94508.47;;;13.57;51.56
29169;BME280;16219;42.864;23.360;2023-03-15T11:06:47;94513.28;;;13.47;49.86
29169;BME280;16219;42.864;23.360;2023-03-15T11:09:16;94511.81;;;13.54;51.41
29169;BME280;16219;42.864;23.360;2023-03-15T11:11:53;94521.66;;;13.53;49.87
29169;BME280;16219;42.864;23.360;2023-03-15T11:14:22;94533.50;;;13.63;51.71
29169;BME280;16219;42.864;23.360;2023-03-15T11:16:53;94523.66;;;13.60;47.97
29169;BME280;16219;42.864;23.360;2023-03-15T11:19:22;94528.25;;;13.36;49.29
29169;BME280;16219;42.864;23.360;2023-03-15T11:21:51;94520.50;;;12.97;49.08
29169;BME280;16219;42.864;23.360;2023-03-15T11:24:23;94515.25;;;13.01;51.71
29169;BME280;16219;42.864;23.360;2023-03-15T11:26:51;94513.94;;;13.14;51.48
29169;BME280;16219;42.864;23.360;2023-03-15T11:29:24;94511.53;;;13.06;49.72
29169;BME280;16219;42.864;23.360;2023-03-15T11:31:54;94508.59;;;13.11;50.77
29169;BME280;16219;42.864;23.360;2023-03-15T11:34:34;94509.03;;;12.90;50.53
29169;BME280;16219;42.864;23.360;2023-03-15T11:37:09;94512.13;;;12.95;52.75
29169;BME280;16219;42.864;23.360;2023-03-15T11:39:41;94508.13;;;13.05;50.37
29169;BME280;16219;42.864;23.360;2023-03-15T11:42:15;94510.47;;;13.10;52.75
29169;BME280;16219;42.864;23.360;2023-03-15T11:44:46;94515.69;;;13.30;52.87
29169;BME280;16219;42.864;23.360;2023-03-15T11:47:22;94503.13;;;13.53;51.32
29169;BME280;16219;42.864;23.360;2023-03-15T11:49:53;94501.75;;;13.66;51.72
29169;BME280;16219;42.864;23.360;2023-03-15T11:52:22;94506.53;;;13.54;50.09
29169;BME280;16219;42.864;23.360;2023-03-15T11:54:53;94492.06;;;13.21;48.90
29169;BME280;16219;42.864;23.360;2023-03-15T11:57:51;94498.56;;;12.97;49.94
29169;BME280;16219;42.864;23.360;2023-03-15T12:00:48;94506.44;;;12.67;50.81
29169;BME280;16219;42.864;23.360;2023-03-15T12:03:37;94494.75;;;12.94;52.13
29169;BME280;16219;42.864;23.360;2023-03-15T12:08:52;94490.38;;;13.32;51.79
29169;BME280;16219;42.864;23.360;2023-03-15T12:11:38;94492.78;;;13.44;52.39
29169;BME280;16219;42.864;23.360;2023-03-15T12:14:21;94506.75;;;13.41;51.79
29169;BME280;16219;42.864;23.360;2023-03-15T12:17:31;94505.81;;;13.27;55.53
29169;BME280;16219;42.864;23.360;2023-03-15T12:19:46;94515.31;;;13.05;57.41
29169;BME280;16219;42.864;23.360;2023-03-15T12:22:14;94501.81;;;13.13;56.37
29169;BME280;16219;42.864;23.360;2023-03-15T12:24:44;94489.69;;;13.12;57.66
29169;BME280;16219;42.864;23.360;2023-03-15T12:27:15;94493.13;;;13.13;58.36
29169;BME280;16219;42.864;23.360;2023-03-15T12:29:45;94488.56;;;12.87;57.97
29169;BME280;16219;42.864;23.360;2023-03-15T12:32:13;94483.75;;;12.66;61.53
29169;BME280;16219;42.864;23.360;2023-03-15T12:34:46;94480.56;;;12.57;63.91
29169;BME280;16219;42.864;23.360;2023-03-15T12:37:19;94495.97;;;12.51;62.82
29169;BME280;16219;42.864;23.360;2023-03-15T12:39:49;94498.25;;;12.52;64.92
29169;BME280;16219;42.864;23.360;2023-03-15T12:45:41;94485.97;;;12.18;65.87
29169;BME280;16219;42.864;23.360;2023-03-15T12:48:20;94480.59;;;12.11;64.61
29169;BME280;16219;42.864;23.360;2023-03-15T12:50:52;94484.22;;;12.25;70.19
29169;BME280;16219;42.864;23.360;2023-03-15T12:53:24;94481.34;;;12.11;65.74
29169;BME280;16219;42.864;23.360;2023-03-15T12:55:54;94477.19;;;11.91;69.27
29169;BME280;16219;42.864;23.360;2023-03-15T12:58:26;94469.81;;;12.00;69.80
29169;BME280;16219;42.864;23.360;2023-03-15T13:00:55;94476.28;;;12.03;69.04
29169;BME280;16219;42.864;23.360;2023-03-15T13:03:25;94482.25;;;11.99;72.91
29169;BME280;16219;42.864;23.360;2023-03-15T13:05:59;94479.91;;;11.94;70.55
29169;BME280;16219;42.864;23.360;2023-03-15T13:08:30;94490.06;;;11.92;73.46
29169;BME280;16219;42.864;23.360;2023-03-15T13:11:09;94486.88;;;11.83;68.03
29169;BME280;16219;42.864;23.360;2023-03-15T13:13:52;94468.41;;;11.67;70.51
29169;BME280;16219;42.864;23.360;2023-03-15T13:16:28;94469.19;;;11.68;67.24
29169;BME280;16219;42.864;23.360;2023-03-15T13:19:14;94466.06;;;11.62;65.58
29169;BME280;16219;42.864;23.360;2023-03-15T13:21:55;94454.66;;;11.77;71.20
29169;BME280;16219;42.864;23.360;2023-03-15T13:24:36;94450.00;;;11.71;72.31